Time;durP1;ratioP1;P1;durP2;ratioP2;P2;SDS_P1;SDS_P2;PMS_P1;PMS_P2;Temp;Humidity;BMP_temperature;BMP_pressure;BME280_temperature;BME280_humidity;BME280_pressure;Samples;Min_cycle;Max_cycle;Signal;HPM_P1;HPM_P2
2024/04/06 00:01:48;;;;;;;17.67;8.48;;;13.10;99.90;;;;;;5029323;28;20228;-81
2024/04/06 00:04:14;;;;;;;10.52;7.15;;;13.10;99.90;;;;;;5024736;28;20224;-82
2024/04/06 00:06:42;;;;;;;8.07;6.55;;;13.10;99.90;;;;;;5026325;28;20201;-81
2024/04/06 00:09:09;;;;;;;8.85;6.85;;;13.10;99.90;;;;;;5029133;28;20236;-81
2024/04/06 00:11:36;;;;;;;12.25;7.22;;;13.10;99.90;;;;;;5026730;28;20226;-81
2024/04/06 00:14:02;;;;;;;10.45;6.43;;;13.10;99.90;;;;;;5021597;28;20248;-82
2024/04/06 00:16:29;;;;;;;6.68;5.95;;;13.00;99.90;;;;;;5021542;28;20197;-81
2024/04/06 00:18:55;;;;;;;7.78;6.03;;;13.00;99.90;;;;;;5022406;28;20205;-82
2024/04/06 00:21:22;;;;;;;10.73;7.30;;;13.00;99.90;;;;;;5020824;28;20267;-82
2024/04/06 00:23:49;;;;;;;7.95;7.10;;;13.00;99.90;;;;;;5020061;28;20459;-82
2024/04/06 00:26:16;;;;;;;16.48;7.40;;;12.90;99.90;;;;;;5019636;28;20205;-85
2024/04/06 00:28:42;;;;;;;13.13;7.25;;;12.90;99.90;;;;;;5019832;28;20652;-83
2024/04/06 00:31:09;;;;;;;16.70;7.90;;;12.90;99.90;;;;;;5020273;28;20275;-82
2024/04/06 00:33:35;;;;;;;8.70;7.18;;;12.90;99.90;;;;;;5017105;28;20506;-82
2024/04/06 00:36:02;;;;;;;10.00;8.00;;;12.80;99.90;;;;;;5017790;28;20201;-81
2024/04/06 00:38:28;;;;;;;8.43;6.85;;;12.70;99.90;;;;;;5018154;28;20986;-81
2024/04/06 00:40:57;;;;;;;9.32;7.70;;;12.80;99.90;;;;;;5016588;28;20400;-82
2024/04/06 00:43:24;;;;;;;9.63;8.60;;;12.80;99.90;;;;;;5017903;28;20232;-81
2024/04/06 00:45:51;;;;;;;12.38;6.35;;;12.80;99.90;;;;;;5019228;28;20212;-80
2024/04/06 00:48:17;;;;;;;11.93;7.53;;;12.80;99.90;;;;;;5020914;28;20276;-80
2024/04/06 00:50:44;;;;;;;10.10;6.67;;;12.80;99.90;;;;;;5020433;28;20233;-83
2024/04/06 00:53:10;;;;;;;13.93;8.43;;;12.90;99.90;;;;;;5019675;28;20502;-81
2024/04/06 00:55:37;;;;;;;11.13;7.47;;;13.00;99.90;;;;;;5022279;28;20198;-81
2024/04/06 00:58:04;;;;;;;7.97;7.22;;;13.00;99.90;;;;;;5021027;28;20444;-79
2024/04/06 01:00:32;;;;;;;9.95;7.45;;;13.00;99.90;;;;;;5023638;28;20205;-79
2024/04/06 01:02:58;;;;;;;10.73;6.80;;;13.00;99.90;;;;;;5028639;28;20260;-80
2024/04/06 01:05:25;;;;;;;7.43;6.22;;;13.00;99.90;;;;;;5028164;28;20261;-80
2024/04/06 01:07:51;;;;;;;8.35;5.35;;;13.10;99.90;;;;;;5028715;28;20213;-80
2024/04/06 01:10:18;;;;;;;11.75;7.00;;;13.10;99.90;;;;;;5032427;28;20225;-80
2024/04/06 01:12:44;;;;;;;7.30;6.30;;;13.20;99.90;;;;;;5034364;28;20225;-80
2024/04/06 01:15:12;;;;;;;11.80;6.40;;;13.20;99.90;;;;;;5037420;28;20217;-79
2024/04/06 01:17:38;;;;;;;7.65;6.35;;;13.20;99.90;;;;;;5040125;28;20460;-78
2024/04/06 01:20:07;;;;;;;10.33;6.27;;;13.20;99.90;;;;;;5039730;28;20220;-78
2024/04/06 01:22:34;;;;;;;5.88;5.25;;;13.10;99.90;;;;;;5040120;28;20475;-79
2024/04/06 01:25:04;;;;;;;9.13;5.15;;;13.20;99.90;;;;;;5039201;28;20189;-79
2024/04/06 01:27:30;;;;;;;6.90;5.50;;;13.10;99.90;;;;;;5033971;28;20194;-81
2024/04/06 01:29:58;;;;;;;6.20;5.00;;;13.10;99.90;;;;;;5027405;28;20239;-82
2024/04/06 01:32:24;;;;;;;11.80;4.72;;;13.20;99.90;;;;;;5026132;28;20518;-81
2024/04/06 01:34:51;;;;;;;7.88;4.15;;;13.10;99.90;;;;;;5022955;28;20209;-81
2024/04/06 01:37:18;;;;;;;6.97;3.88;;;13.00;99.90;;;;;;5025035;28;20205;-82
2024/04/06 01:39:45;;;;;;;8.25;4.55;;;13.20;99.90;;;;;;5024780;28;20205;-82
2024/04/06 01:42:12;;;;;;;6.80;4.88;;;13.20;99.90;;;;;;5024724;28;20228;-81
2024/04/06 01:44:40;;;;;;;6.65;4.97;;;13.20;99.90;;;;;;5024026;28;20240;-81
2024/04/06 01:47:06;;;;;;;7.57;4.93;;;13.10;99.90;;;;;;5021023;28;20248;-82
2024/04/06 01:49:33;;;;;;;8.68;5.70;;;13.10;99.90;;;;;;5022208;28;20198;-83
2024/04/06 01:51:59;;;;;;;5.72;4.57;;;13.10;99.90;;;;;;5021362;28;20283;-82
2024/04/06 01:54:26;;;;;;;7.97;5.33;;;13.10;99.90;;;;;;5027904;23;20222;-80
2024/04/06 01:56:52;;;;;;;7.88;4.65;;;13.10;99.90;;;;;;5010893;28;20448;-82
2024/04/06 01:59:21;;;;;;;8.77;4.72;;;13.00;99.90;;;;;;5007819;28;20317;-80
2024/04/06 02:01:47;;;;;;;5.65;4.05;;;13.10;99.90;;;;;;5012259;28;20194;-80
2024/04/06 02:04:14;;;;;;;7.43;4.43;;;13.10;99.90;;;;;;5001757;28;20241;-79
2024/04/06 02:06:40;;;;;;;11.65;5.13;;;13.10;99.90;;;;;;4984238;28;20199;-80
2024/04/06 02:09:07;;;;;;;4.67;4.17;;;13.10;99.90;;;;;;4981975;28;20204;-79
2024/04/06 02:11:33;;;;;;;5.80;4.35;;;13.10;99.90;;;;;;4982543;28;20478;-80
2024/04/06 02:14:00;;;;;;;9.10;5.90;;;13.10;99.90;;;;;;4987575;28;20329;-80
2024/04/06 02:16:27;;;;;;;5.55;4.80;;;13.20;99.90;;;;;;4987798;28;20454;-79
2024/04/06 02:18:54;;;;;;;12.18;4.28;;;13.20;99.90;;;;;;4988470;28;20233;-79
2024/04/06 02:21:20;;;;;;;8.10;4.97;;;13.10;99.90;;;;;;4979313;28;20203;-80
2024/04/06 02:23:47;;;;;;;7.53;4.47;;;13.10;99.90;;;;;;4993702;28;20225;-80
2024/04/06 02:26:13;;;;;;;5.22;3.47;;;13.10;99.90;;;;;;4974148;28;20454;-80
2024/04/06 02:28:40;;;;;;;9.30;5.07;;;13.20;99.90;;;;;;4981007;28;20207;-80
2024/04/06 02:31:08;;;;;;;7.43;3.75;;;13.30;99.90;;;;;;4979829;28;20574;-80
2024/04/06 02:33:36;;;;;;;8.60;5.70;;;13.20;99.90;;;;;;4987147;28;20219;-80
2024/04/06 02:36:03;;;;;;;6.80;3.95;;;13.20;99.90;;;;;;4978127;28;20242;-80
2024/04/06 02:38:30;;;;;;;4.97;3.38;;;13.20;99.90;;;;;;4985350;28;20225;-80
2024/04/06 02:40:56;;;;;;;11.73;4.93;;;13.20;99.90;;;;;;4982152;28;20243;-80
2024/04/06 02:43:23;;;;;;;6.37;4.90;;;13.20;99.90;;;;;;4970739;28;20227;-80
2024/04/06 02:45:49;;;;;;;6.38;4.70;;;13.20;99.90;;;;;;4963234;28;20463;-81
2024/04/06 02:48:15;;;;;;;5.20;4.70;;;13.20;99.90;;;;;;4973107;28;20203;-80
2024/04/06 02:50:43;;;;;;;11.88;5.40;;;13.20;99.90;;;;;;4981280;28;20482;-80
2024/04/06 02:53:10;;;;;;;6.00;4.30;;;13.20;99.90;;;;;;4990539;28;20206;-81
2024/04/06 02:55:36;;;;;;;7.93;5.13;;;13.20;99.90;;;;;;4988642;28;20261;-80
2024/04/06 02:58:03;;;;;;;4.97;4.37;;;13.20;99.90;;;;;;4981709;28;20203;-81
2024/04/06 03:00:29;;;;;;;8.68;5.28;;;13.20;99.90;;;;;;4975859;28;20470;-81
2024/04/06 03:02:55;;;;;;;10.50;5.30;;;13.20;99.90;;;;;;4983874;28;20206;-80
2024/04/06 03:05:21;;;;;;;10.45;5.22;;;13.20;99.90;;;;;;4980028;28;21847;-80
2024/04/06 03:07:50;;;;;;;15.53;5.63;;;13.20;99.90;;;;;;4995981;28;20230;-79
2024/04/06 03:10:16;;;;;;;7.60;4.05;;;13.20;99.90;;;;;;4982174;28;20454;-80
2024/04/06 03:12:43;;;;;;;9.10;4.33;;;13.30;99.90;;;;;;4990429;28;20237;-80
2024/04/06 03:15:08;;;;;;;6.65;5.05;;;13.30;99.90;;;;;;4990092;28;20518;-80
2024/04/06 03:17:36;;;;;;;7.80;4.47;;;13.30;99.90;;;;;;4986121;28;20183;-81
2024/04/06 03:20:04;;;;;;;5.45;4.15;;;13.20;99.90;;;;;;4986940;28;20431;-81
2024/04/06 03:22:31;;;;;;;5.15;4.10;;;13.20;99.90;;;;;;4990482;28;20190;-81
2024/04/06 03:24:58;;;;;;;6.78;4.72;;;13.20;99.90;;;;;;4997704;28;20215;-81
2024/04/06 03:27:26;;;;;;;7.03;4.95;;;13.20;99.90;;;;;;4986736;28;20191;-81
2024/04/06 03:29:51;;;;;;;6.57;4.55;;;13.10;99.90;;;;;;4985236;28;20199;-82
2024/04/06 03:32:18;;;;;;;8.83;6.13;;;13.10;99.90;;;;;;4988875;28;20253;-81
2024/04/06 03:34:44;;;;;;;6.57;4.60;;;13.10;99.90;;;;;;4988550;28;20467;-80
2024/04/06 03:37:11;;;;;;;9.40;4.60;;;13.10;99.90;;;;;;4976091;28;20213;-80
2024/04/06 03:39:38;;;;;;;10.43;5.47;;;13.20;99.90;;;;;;4981030;28;20513;-81
2024/04/06 03:42:07;;;;;;;10.18;5.90;;;13.10;99.90;;;;;;4981532;28;20271;-79
2024/04/06 03:44:34;;;;;;;7.18;6.10;;;13.20;99.90;;;;;;5002767;28;20238;-80
2024/04/06 03:47:00;;;;;;;8.52;4.88;;;13.20;99.90;;;;;;4979511;28;20211;-80
2024/04/06 03:49:27;;;;;;;8.10;4.75;;;13.20;99.90;;;;;;4992504;28;20233;-80
2024/04/06 03:51:53;;;;;;;5.97;5.47;;;13.10;99.90;;;;;;4987731;28;20222;-80
2024/04/06 03:54:20;;;;;;;17.60;6.73;;;13.10;99.90;;;;;;4993516;28;20273;-80
2024/04/06 03:56:46;;;;;;;6.32;5.70;;;13.10;99.90;;;;;;4981182;28;20506;-80
2024/04/06 03:59:15;;;;;;;7.33;5.60;;;13.00;99.90;;;;;;4984620;28;20210;-80
2024/04/06 04:01:41;;;;;;;8.93;5.13;;;13.10;99.90;;;;;;4993958;28;20449;-80
2024/04/06 04:04:08;;;;;;;9.40;5.60;;;13.10;99.90;;;;;;4999629;28;20313;-80
2024/04/06 04:06:34;;;;;;;7.80;6.63;;;13.10;99.90;;;;;;4988639;28;20458;-80
2024/04/06 04:09:01;;;;;;;8.73;6.07;;;13.10;99.90;;;;;;4990032;28;20206;-80
2024/04/06 04:11:26;;;;;;;6.85;5.63;;;13.10;99.90;;;;;;4977114;28;20475;-80
2024/04/06 04:13:53;;;;;;;7.97;7.13;;;13.10;99.90;;;;;;4987250;28;20257;-80
2024/04/06 04:16:21;;;;;;;8.57;5.72;;;13.20;99.90;;;;;;4971443;28;20451;-81
2024/04/06 04:18:48;;;;;;;9.07;7.05;;;13.20;99.90;;;;;;4982183;28;20238;-81
2024/04/06 04:21:13;;;;;;;11.27;5.05;;;13.30;99.90;;;;;;4986037;28;20217;-81
2024/04/06 04:23:40;;;;;;;7.83;6.13;;;13.30;99.90;;;;;;4983066;28;20221;-81
2024/04/06 04:26:07;;;;;;;7.35;6.20;;;13.30;99.90;;;;;;4983442;28;20446;-81
2024/04/06 04:28:34;;;;;;;9.25;7.22;;;13.30;99.90;;;;;;4976092;28;20310;-81
2024/04/06 04:31:12;;;;;;;11.18;8.00;;;13.40;99.90;;;;;;4967538;28;20265;-81
2024/04/06 04:33:40;;;;;;;10.02;7.20;;;13.30;99.90;;;;;;4972919;28;20280;-81
2024/04/06 04:36:07;;;;;;;12.20;9.27;;;13.30;99.90;;;;;;4994209;28;20222;-81
2024/04/06 04:38:34;;;;;;;9.40;8.40;;;13.40;99.90;;;;;;4981335;28;20203;-81
2024/04/06 04:41:00;;;;;;;9.02;8.10;;;13.30;99.90;;;;;;4988464;28;20206;-81
2024/04/06 04:43:27;;;;;;;11.23;8.68;;;13.40;99.90;;;;;;4982569;28;20222;-81
2024/04/06 04:45:53;;;;;;;9.23;8.32;;;13.40;99.90;;;;;;4980780;28;20219;-81
2024/04/06 04:48:20;;;;;;;11.40;9.47;;;13.40;99.90;;;;;;4976917;28;20819;-81
2024/04/06 04:50:47;;;;;;;13.15;9.35;;;13.40;99.90;;;;;;4990360;28;20520;-81
2024/04/06 04:53:14;;;;;;;16.40;10.25;;;13.40;99.90;;;;;;4978353;28;20285;-81
2024/04/06 04:55:41;;;;;;;11.15;10.15;;;13.50;99.90;;;;;;4979641;28;20203;-81
2024/04/06 04:58:08;;;;;;;11.38;9.73;;;13.50;99.90;;;;;;4989290;28;20237;-81
2024/04/06 05:00:34;;;;;;;13.20;9.18;;;13.50;99.90;;;;;;4982770;28;20218;-81
2024/04/06 05:03:01;;;;;;;14.20;10.27;;;13.40;99.90;;;;;;4982818;28;20204;-82
2024/04/06 05:05:27;;;;;;;10.35;9.30;;;13.50;99.90;;;;;;4992400;28;20528;-81
2024/04/06 05:07:55;;;;;;;8.13;7.43;;;13.50;99.90;;;;;;4982780;28;20207;-81
2024/04/06 05:10:21;;;;;;;10.07;9.07;;;13.50;99.90;;;;;;4980655;28;20450;-81
2024/04/06 05:12:48;;;;;;;12.17;9.90;;;13.60;99.90;;;;;;4987014;28;20238;-81
2024/04/06 05:15:14;;;;;;;10.90;9.40;;;13.50;99.90;;;;;;4986551;28;20506;-81
2024/04/06 05:17:41;;;;;;;11.53;9.30;;;13.50;99.90;;;;;;4989802;28;20198;-81
2024/04/06 05:20:08;;;;;;;13.07;11.77;;;13.40;99.90;;;;;;4990952;28;20443;-79
2024/04/06 05:22:35;;;;;;;16.80;10.52;;;13.30;99.90;;;;;;4974024;28;20207;-80
2024/04/06 05:25:03;;;;;;;10.52;9.40;;;13.30;99.90;;;;;;4987862;28;20262;-80
2024/04/06 05:27:30;;;;;;;12.13;9.93;;;13.30;99.90;;;;;;5000049;28;20235;-80
2024/04/06 05:29:56;;;;;;;16.70;11.63;;;13.40;99.90;;;;;;4991891;28;20207;-80
2024/04/06 05:32:23;;;;;;;14.53;10.90;;;13.50;99.90;;;;;;4986084;28;20285;-80
2024/04/06 05:34:49;;;;;;;11.18;8.18;;;13.60;99.90;;;;;;4995394;28;20478;-79
2024/04/06 05:37:16;;;;;;;10.38;9.32;;;13.70;99.90;;;;;;4985123;28;20204;-79
2024/04/06 05:39:42;;;;;;;12.70;11.40;;;13.70;99.90;;;;;;5003167;28;20206;-80
2024/04/06 05:42:10;;;;;;;11.82;10.63;;;13.70;99.90;;;;;;4987780;28;20200;-81
2024/04/06 05:44:36;;;;;;;11.48;10.27;;;13.80;99.90;;;;;;4984241;28;20238;-80
2024/04/06 05:47:04;;;;;;;9.73;8.73;;;13.90;99.90;;;;;;4999828;28;20293;-79
2024/04/06 05:49:30;;;;;;;10.55;9.55;;;14.00;99.90;;;;;;4990311;28;20454;-80
2024/04/06 05:51:57;;;;;;;10.83;9.50;;;14.50;99.90;;;;;;4976702;28;20238;-80
2024/04/06 05:54:23;;;;;;;11.90;10.18;;;15.00;99.90;;;;;;5002127;28;20474;-80
2024/04/06 05:56:50;;;;;;;11.80;9.65;;;15.20;99.90;;;;;;4991835;28;20227;-80
2024/04/06 05:59:17;;;;;;;10.75;9.65;;;15.40;99.90;;;;;;4991708;28;20196;-79
2024/04/06 06:01:44;;;;;;;9.90;8.47;;;15.50;99.90;;;;;;4994819;28;20202;-80
2024/04/06 06:04:10;;;;;;;9.60;8.10;;;15.70;99.90;;;;;;4998716;28;20441;-80
2024/04/06 06:06:38;;;;;;;12.30;8.60;;;15.80;99.90;;;;;;4999380;28;20454;-80
2024/04/06 06:09:04;;;;;;;11.23;10.13;;;15.60;99.90;;;;;;4991803;28;20451;-80
2024/04/06 06:11:32;;;;;;;12.60;9.70;;;15.70;99.90;;;;;;4977099;28;20488;-80
2024/04/06 06:13:58;;;;;;;16.37;12.00;;;15.60;99.90;;;;;;4978541;28;20471;-80
2024/04/06 06:16:27;;;;;;;10.23;9.07;;;15.50;99.90;;;;;;4978828;28;20479;-80
2024/04/06 06:18:53;;;;;;;14.17;8.80;;;15.50;99.90;;;;;;4988411;28;20487;-79
2024/04/06 06:21:19;;;;;;;11.77;9.30;;;15.40;99.90;;;;;;4985399;28;20450;-80
2024/04/06 06:23:47;;;;;;;14.73;10.37;;;15.30;99.90;;;;;;4977149;28;20571;-80
2024/04/06 06:26:14;;;;;;;13.70;9.77;;;15.30;99.90;;;;;;4981126;28;20463;-80
2024/04/06 06:28:40;;;;;;;10.53;8.40;;;15.30;99.90;;;;;;4979652;28;20473;-80
2024/04/06 06:31:07;;;;;;;10.60;9.60;;;15.40;99.90;;;;;;4978485;28;20451;-80
2024/04/06 06:33:35;;;;;;;13.77;10.47;;;15.50;99.90;;;;;;4981095;28;20521;-80
2024/04/06 06:36:03;;;;;;;10.63;9.40;;;15.50;99.90;;;;;;4992447;28;20501;-80
2024/04/06 06:38:29;;;;;;;10.13;8.70;;;15.60;99.90;;;;;;4970684;28;20517;-84
2024/04/06 06:40:56;;;;;;;10.13;7.00;;;15.80;99.90;;;;;;4984188;28;20935;-80
2024/04/06 06:43:22;;;;;;;7.30;6.70;;;16.30;99.90;;;;;;4984600;28;20482;-80
2024/04/06 06:45:49;;;;;;;7.30;6.13;;;17.30;99.90;;;;;;4983884;28;20443;-80
2024/04/06 06:48:15;;;;;;;9.70;6.40;;;18.50;99.90;;;;;;4979253;28;20516;-80
2024/04/06 06:50:43;;;;;;;11.03;7.20;;;19.00;99.90;;;;;;4985215;28;20451;-81
2024/04/06 06:53:09;;;;;;;8.20;5.73;;;19.50;99.90;;;;;;4979750;28;20494;-80
2024/04/06 06:55:37;;;;;;;6.50;5.07;;;19.50;99.90;;;;;;4977352;28;20494;-80
2024/04/06 06:58:03;;;;;;;7.07;5.43;;;19.10;99.90;;;;;;4986707;28;20455;-80
2024/04/06 07:00:30;;;;;;;9.63;6.07;;;18.60;99.90;;;;;;4983752;28;20567;-81
2024/04/06 07:02:56;;;;;;;11.33;5.33;;;18.60;99.90;;;;;;4982712;28;20445;-83
2024/04/06 07:05:23;;;;;;;6.00;5.23;;;18.00;99.90;;;;;;4971283;28;20590;-81
2024/04/06 07:07:55;;;;;;;7.07;5.10;;;17.70;99.90;;;;;;4981252;28;20454;-81
2024/04/06 07:10:22;;;;;;;10.83;5.30;;;17.50;99.90;;;;;;4981356;28;20486;-82
2024/04/06 07:12:48;;;;;;;6.37;4.20;;;17.30;99.90;;;;;;4974502;28;20560;-80
2024/04/06 07:15:15;;;;;;;7.50;5.03;;;17.50;99.90;;;;;;4974532;28;20493;-80
2024/04/06 07:17:42;;;;;;;6.53;4.00;;;17.60;99.90;;;;;;4961577;28;20443;-83
2024/04/06 07:20:12;;;;;;;8.47;5.00;;;17.60;99.90;;;;;;4979096;28;20549;-84
2024/04/06 07:22:40;;;;;;;11.50;5.73;;;17.70;99.90;;;;;;4984557;28;20451;-83
2024/04/06 07:25:17;;;;;;;4.80;4.17;;;17.60;99.90;;;;;;5001225;28;20545;-81
2024/04/06 07:27:44;;;;;;;8.17;4.30;;;17.60;99.90;;;;;;4996529;28;20434;-84
2024/04/06 07:30:11;;;;;;;6.83;3.90;;;17.60;99.90;;;;;;4993348;28;20450;-83
2024/04/06 07:32:37;;;;;;;7.77;3.90;;;17.60;99.90;;;;;;4983548;28;20483;-82
2024/04/06 07:35:05;;;;;;;4.10;3.60;;;17.80;99.90;;;;;;4988528;28;20481;-85
2024/04/06 07:37:31;;;;;;;6.90;4.50;;;18.00;99.90;;;;;;4988572;28;20446;-81
2024/04/06 07:40:04;;;;;;;6.20;4.17;;;18.20;99.90;;;;;;4985975;28;20446;-82
2024/04/06 07:42:38;;;;;;;3.90;3.50;;;18.40;99.90;;;;;;4983860;28;20461;-83
2024/04/06 07:45:06;;;;;;;4.47;3.50;;;18.50;99.90;;;;;;4992971;28;20538;-83
2024/04/06 07:47:32;;;;;;;6.07;4.20;;;18.80;99.90;;;;;;4993703;28;20525;-85
2024/04/06 07:49:59;;;;;;;4.63;2.83;;;18.70;99.90;;;;;;4993308;28;20438;-81
2024/04/06 07:52:25;;;;;;;4.20;3.50;;;18.90;99.90;;;;;;4990789;28;20491;-82
2024/04/06 07:54:52;;;;;;;6.23;3.90;;;19.20;99.90;;;;;;4993841;28;20487;-81
2024/04/06 07:57:18;;;;;;;6.33;3.80;;;19.30;99.90;;;;;;4991131;28;20483;-86
2024/04/06 07:59:55;;;;;;;4.63;3.80;;;19.70;99.90;;;;;;4988432;28;20455;-80
2024/04/06 08:02:21;;;;;;;6.47;4.17;;;19.90;99.90;;;;;;4979708;28;20454;-82
2024/04/06 08:05:22;;;;;;;6.10;3.47;;;19.80;99.90;;;;;;5020159;22;20508;-80
2024/04/06 08:07:48;;;;;;;5.17;3.57;;;19.90;99.90;;;;;;5049231;28;20456;-80
2024/04/06 08:10:17;;;;;;;3.00;2.17;;;20.10;99.90;;;;;;5059686;28;20465;-81
2024/04/06 08:12:43;;;;;;;3.93;2.43;;;20.20;99.90;;;;;;5053899;28;20483;-81
2024/04/06 08:15:12;;;;;;;5.67;3.20;;;20.80;99.90;;;;;;5044780;28;20463;-83
2024/04/06 08:17:40;;;;;;;6.13;3.50;;;21.60;99.90;;;;;;5047965;28;20443;-79
2024/04/06 08:20:08;;;;;;;3.17;2.53;;;22.80;99.90;;;;;;5059526;28;20446;-80
2024/04/06 08:22:34;;;;;;;6.13;3.63;;;24.20;99.90;;;;;;5058777;28;20446;-80
2024/04/06 08:25:04;;;;;;;4.67;2.10;;;25.50;99.90;;;;;;5058829;28;20467;-80
2024/04/06 08:27:35;;;;;;;3.27;2.57;;;26.20;99.30;;;;;;5056505;28;20454;-80
2024/04/06 08:30:04;;;;;;;4.93;3.03;;;26.90;97.10;;;;;;5052836;28;20614;-80
2024/04/06 08:32:35;;;;;;;4.47;2.90;;;27.50;96.10;;;;;;5045698;28;20485;-79
2024/04/06 08:35:01;;;;;;;3.67;2.47;;;27.90;94.90;;;;;;5046249;28;20498;-79
2024/04/06 08:37:29;;;;;;;5.53;2.93;;;28.30;94.10;;;;;;5045888;28;20454;-80
2024/04/06 08:39:55;;;;;;;8.93;3.00;;;28.40;93.20;;;;;;5050115;28;20445;-82
2024/04/06 08:42:23;;;;;;;4.33;2.23;;;28.90;93.50;;;;;;5047856;28;20443;-81
2024/04/06 08:44:50;;;;;;;3.47;1.97;;;28.80;93.00;;;;;;5047357;28;20475;-81
2024/04/06 08:47:23;;;;;;;3.17;1.83;;;27.50;93.40;;;;;;5054120;28;20447;-81
2024/04/06 08:49:51;;;;;;;5.30;2.83;;;27.90;93.80;;;;;;5048270;28;20507;-81
2024/04/06 08:52:18;;;;;;;3.77;2.27;;;28.60;93.00;;;;;;5053294;28;20507;-83
2024/04/06 08:54:45;;;;;;;3.63;2.30;;;28.70;91.80;;;;;;5057127;28;20460;-81
2024/04/06 08:57:12;;;;;;;2.90;2.33;;;28.60;91.90;;;;;;5060520;28;20448;-81
2024/04/06 08:59:41;;;;;;;4.60;2.27;;;27.00;93.10;;;;;;5060952;28;20549;-80
2024/04/06 09:02:09;;;;;;;5.20;2.43;;;26.90;93.70;;;;;;5060177;28;20460;-80
2024/04/06 09:04:35;;;;;;;6.80;2.17;;;26.00;94.50;;;;;;5059195;28;20465;-80
2024/04/06 09:07:04;;;;;;;6.57;2.00;;;25.60;95.10;;;;;;5059530;28;20444;-83
2024/04/06 09:09:30;;;;;;;5.23;1.70;;;25.80;95.80;;;;;;5050248;28;20534;-81
2024/04/06 09:11:57;;;;;;;3.33;1.90;;;25.80;95.00;;;;;;5052816;28;20983;-81
2024/04/06 09:14:23;;;;;;;3.47;2.27;;;25.60;95.50;;;;;;5057980;28;20533;-83
2024/04/06 09:16:50;;;;;;;3.70;2.20;;;25.30;96.70;;;;;;5055883;28;20439;-81
2024/04/06 09:19:17;;;;;;;3.03;2.20;;;25.20;96.50;;;;;;5058003;28;20476;-80
2024/04/06 09:21:47;;;;;;;3.57;1.97;;;25.60;96.80;;;;;;5056885;28;20451;-81
2024/04/06 09:24:14;;;;;;;3.43;2.13;;;26.30;96.10;;;;;;5056818;28;20465;-82
2024/04/06 09:26:42;;;;;;;3.20;1.60;;;27.00;94.70;;;;;;5057908;28;20440;-83
2024/04/06 09:29:08;;;;;;;4.73;2.03;;;26.20;94.40;;;;;;5056663;28;20578;-81
2024/04/06 09:31:39;;;;;;;5.13;1.80;;;26.80;94.90;;;;;;5056804;28;20431;-83
2024/04/06 09:34:05;;;;;;;5.17;2.20;;;27.50;94.50;;;;;;5055472;28;20439;-81
2024/04/06 09:36:40;;;;;;;3.83;2.00;;;27.70;94.30;;;;;;5055370;28;20456;-82
2024/04/06 09:39:06;;;;;;;6.53;2.47;;;28.30;93.60;;;;;;5051158;28;20447;-83
2024/04/06 09:41:45;;;;;;;2.60;2.20;;;28.60;92.80;;;;;;5057798;28;20465;-82
2024/04/06 09:44:13;;;;;;;2.63;1.70;;;28.30;92.90;;;;;;5054115;28;20473;-85
2024/04/06 09:46:40;;;;;;;3.37;2.00;;;27.70;93.10;;;;;;5044115;28;20509;-83
2024/04/06 09:49:06;;;;;;;4.40;2.70;;;27.70;93.60;;;;;;5053305;28;20474;-81
2024/04/06 09:51:34;;;;;;;3.57;1.90;;;26.70;93.90;;;;;;5048539;28;20451;-84
2024/04/06 09:54:00;;;;;;;4.77;1.90;;;26.50;94.80;;;;;;5042658;28;20516;-83
2024/04/06 09:56:27;;;;;;;4.10;1.73;;;26.60;95.00;;;;;;5049526;28;20448;-83
2024/04/06 09:58:55;;;;;;;2.33;1.53;;;26.60;94.60;;;;;;5049995;28;20925;-84
2024/04/06 10:01:22;;;;;;;2.77;1.60;;;26.40;95.10;;;;;;5051987;28;20449;-84
2024/04/06 10:03:49;;;;;;;6.67;1.97;;;26.80;94.90;;;;;;5051425;28;20570;-83
2024/04/06 10:06:18;;;;;;;2.40;1.20;;;26.80;94.70;;;;;;5051368;28;20470;-83
2024/04/06 10:08:48;;;;;;;2.47;1.20;;;27.20;93.80;;;;;;5051621;28;20466;-83
2024/04/06 10:11:17;;;;;;;2.37;1.37;;;27.30;93.70;;;;;;5050679;28;20460;-82
2024/04/06 10:13:53;;;;;;;3.27;1.67;;;27.80;93.00;;;;;;5043463;28;20479;-83
2024/04/06 10:16:23;;;;;;;2.93;1.60;;;27.20;92.90;;;;;;5051317;28;20502;-80
2024/04/06 10:18:50;;;;;;;2.43;1.80;;;26.80;94.00;;;;;;5051190;28;20441;-81
2024/04/06 10:21:20;;;;;;;6.33;1.53;;;26.70;94.30;;;;;;5052336;28;20478;-84
2024/04/06 10:23:47;;;;;;;3.43;1.47;;;26.90;94.50;;;;;;5054415;28;20456;-83
2024/04/06 10:26:17;;;;;;;11.23;4.10;;;26.60;94.50;;;;;;5056492;28;20466;-82
2024/04/06 10:28:43;;;;;;;75.23;18.30;;;26.50;94.60;;;;;;5045677;28;20451;-83
2024/04/06 10:31:11;;;;;;;6.47;2.20;;;26.00;95.50;;;;;;5052008;28;20510;-83
2024/04/06 10:33:39;;;;;;;2.73;1.57;;;25.30;95.90;;;;;;5049636;28;20510;-83
2024/04/06 10:36:10;;;;;;;23.80;5.73;;;25.00;96.20;;;;;;5050046;28;20466;-82
2024/04/06 10:38:36;;;;;;;3.30;1.83;;;24.80;96.90;;;;;;5049993;28;20471;-83
2024/04/06 10:41:04;;;;;;;8.00;2.97;;;24.20;97.40;;;;;;5049989;28;20522;-82
2024/04/06 10:43:32;;;;;;;4.87;2.50;;;24.30;98.10;;;;;;5050868;28;20436;-81
2024/04/06 10:45:59;;;;;;;2.60;1.40;;;24.30;98.30;;;;;;5053344;28;20476;-83
2024/04/06 10:48:26;;;;;;;3.53;1.50;;;24.30;98.20;;;;;;5057658;28;20440;-83
2024/04/06 10:50:58;;;;;;;2.10;1.57;;;24.50;98.30;;;;;;5054041;28;20459;-83
2024/04/06 10:53:25;;;;;;;2.40;1.50;;;24.80;97.70;;;;;;5056589;28;20476;-85
2024/04/06 10:55:53;;;;;;;2.67;1.70;;;25.10;97.50;;;;;;5056315;28;20524;-85
2024/04/06 10:58:20;;;;;;;2.03;1.30;;;25.00;97.50;;;;;;5056923;28;20453;-83
2024/04/06 11:00:47;;;;;;;4.73;1.70;;;24.70;97.40;;;;;;5054702;28;20432;-84
2024/04/06 11:03:14;;;;;;;5.83;1.90;;;24.70;97.70;;;;;;5057734;28;20428;-84
2024/04/06 11:05:41;;;;;;;3.90;1.33;;;24.60;98.00;;;;;;5057120;28;20463;-82
2024/04/06 11:08:09;;;;;;;2.33;1.57;;;24.60;97.90;;;;;;5047642;28;20475;-83
2024/04/06 11:10:38;;;;;;;4.63;1.70;;;24.60;97.50;;;;;;5049646;28;20473;-84
2024/04/06 11:13:04;;;;;;;2.77;1.57;;;24.80;97.50;;;;;;5059387;28;20471;-85
2024/04/06 11:15:31;;;;;;;2.03;1.37;;;25.00;97.10;;;;;;5073213;28;20462;-84
2024/04/06 11:17:58;;;;;;;3.17;1.40;;;25.00;96.30;;;;;;5077084;28;20447;-86
2024/04/06 11:20:26;;;;;;;2.03;1.40;;;24.90;96.60;;;;;;5075577;28;20428;-84
2024/04/06 11:22:52;;;;;;;1.93;1.20;;;24.80;96.90;;;;;;5057593;28;20468;-84
2024/04/06 11:25:21;;;;;;;4.73;1.93;;;24.40;97.30;;;;;;5057283;28;20452;-84
2024/04/06 11:27:47;;;;;;;2.90;1.20;;;24.50;97.50;;;;;;5057483;28;20436;-85
2024/04/06 11:30:16;;;;;;;2.70;1.20;;;24.50;97.60;;;;;;5057643;28;20457;-85
2024/04/06 11:32:43;;;;;;;3.00;1.73;;;24.80;97.10;;;;;;5057361;28;20484;-84
2024/04/06 11:35:10;;;;;;;2.60;1.30;;;24.80;97.30;;;;;;5057568;28;20485;-85
2024/04/06 11:37:36;;;;;;;1.63;1.27;;;24.90;97.00;;;;;;5057131;28;20440;-83
2024/04/06 11:40:04;;;;;;;2.00;1.00;;;24.80;97.00;;;;;;5044072;28;20461;-84
2024/04/06 11:42:31;;;;;;;2.67;1.90;;;25.10;96.50;;;;;;5056949;28;20444;-84
2024/04/06 11:44:59;;;;;;;2.43;1.80;;;24.90;96.80;;;;;;5045366;28;20542;-80
2024/04/06 11:47:25;;;;;;;3.30;1.70;;;24.80;97.20;;;;;;5045257;28;20562;-82
2024/04/06 11:49:52;;;;;;;2.83;1.60;;;24.60;96.90;;;;;;5048250;28;20436;-82
2024/04/06 11:52:18;;;;;;;4.20;2.17;;;24.30;96.40;;;;;;5044766;28;20496;-82
2024/04/06 11:54:45;;;;;;;1.77;1.23;;;24.40;97.00;;;;;;5044317;28;20511;-83
2024/04/06 11:57:11;;;;;;;3.87;1.60;;;24.50;96.90;;;;;;5047382;28;20447;-84
2024/04/06 11:59:40;;;;;;;2.70;1.20;;;24.30;96.90;;;;;;5050850;28;20495;-84
2024/04/06 12:02:06;;;;;;;3.67;1.70;;;24.20;97.40;;;;;;5054946;28;20474;-84
2024/04/06 12:04:33;;;;;;;2.60;1.70;;;23.90;97.90;;;;;;5043740;28;20835;-66
2024/04/06 12:07:00;;;;;;;1.60;1.00;;;23.90;98.30;;;;;;5030721;28;20559;-66
2024/04/06 12:09:27;;;;;;;1.70;1.33;;;23.80;97.60;;;;;;5030966;28;20510;-65
2024/04/06 12:11:54;;;;;;;2.40;1.60;;;23.80;98.20;;;;;;5032496;28;20532;-67
2024/04/06 12:14:21;;;;;;;4.00;2.07;;;23.70;97.90;;;;;;5031507;28;20468;-67
2024/04/06 12:16:49;;;;;;;2.50;1.47;;;23.80;98.30;;;;;;5031382;28;20976;-66
2024/04/06 12:19:17;;;;;;;3.23;1.23;;;23.70;97.70;;;;;;5031757;28;20456;-66
2024/04/06 12:21:42;;;;;;;1.67;1.20;;;23.80;97.50;;;;;;5023450;28;20831;-65
2024/04/06 12:24:09;;;;;;;3.27;1.80;;;23.90;97.20;;;;;;5030006;28;20459;-67
2024/04/06 12:26:35;;;;;;;6.93;1.77;;;23.90;97.50;;;;;;5030957;28;20761;-66
2024/04/06 12:29:02;;;;;;;2.33;1.30;;;23.90;97.40;;;;;;5031305;28;20471;-67
2024/04/06 12:31:28;;;;;;;2.13;1.47;;;23.80;97.40;;;;;;5031039;28;20809;-68
2024/04/06 12:33:56;;;;;;;2.47;1.90;;;24.00;97.80;;;;;;5029130;28;20485;-67
2024/04/06 12:36:22;;;;;;;3.97;1.67;;;24.00;98.00;;;;;;5030659;28;20486;-68
2024/04/06 12:38:50;;;;;;;3.13;1.50;;;24.00;98.30;;;;;;5030879;28;20482;-66
2024/04/06 12:41:16;;;;;;;2.30;1.60;;;24.00;97.80;;;;;;5030887;28;20448;-66
2024/04/06 12:43:43;;;;;;;2.93;1.97;;;23.90;97.90;;;;;;5030654;28;20507;-66